sensor_id;sensor_type;location;lat;lon;timestamp;P1;durP1;ratioP1;P2;durP2;ratioP2
52248;SDS011;38541;48.130;8.378;2022-12-18T00:01:12;14.43;;;9.40;;
52248;SDS011;38541;48.130;8.378;2022-12-18T00:03:51;13.48;;;10.00;;
52248;SDS011;38541;48.130;8.378;2022-12-18T00:06:19;14.90;;;10.05;;
52248;SDS011;38541;48.130;8.378;2022-12-18T00:08:46;12.75;;;9.65;;
52248;SDS011;38541;48.130;8.378;2022-12-18T00:11:20;13.27;;;10.05;;
52248;SDS011;38541;48.130;8.378;2022-12-18T00:13:47;16.95;;;10.05;;
52248;SDS011;38541;48.130;8.378;2022-12-18T00:16:15;13.98;;;10.38;;
52248;SDS011;38541;48.130;8.378;2022-12-18T00:18:50;14.20;;;10.65;;
52248;SDS011;38541;48.130;8.378;2022-12-18T00:21:18;12.50;;;9.15;;
52248;SDS011;38541;48.130;8.378;2022-12-18T00:23:46;15.45;;;10.43;;
52248;SDS011;38541;48.130;8.378;2022-12-18T00:26:15;14.85;;;10.35;;
52248;SDS011;38541;48.130;8.378;2022-12-18T00:28:44;9.90;;;8.27;;
52248;SDS011;38541;48.130;8.378;2022-12-18T00:31:13;11.90;;;9.25;;
52248;SDS011;38541;48.130;8.378;2022-12-18T00:33:42;11.88;;;9.30;;
52248;SDS011;38541;48.130;8.378;2022-12-18T00:36:10;13.25;;;9.27;;
52248;SDS011;38541;48.130;8.378;2022-12-18T00:38:38;14.20;;;9.15;;
52248;SDS011;38541;48.130;8.378;2022-12-18T00:41:05;12.00;;;8.60;;
52248;SDS011;38541;48.130;8.378;2022-12-18T00:43:35;10.93;;;7.95;;
52248;SDS011;38541;48.130;8.378;2022-12-18T00:46:03;12.43;;;9.40;;
52248;SDS011;38541;48.130;8.378;2022-12-18T00:48:30;13.60;;;8.48;;
52248;SDS011;38541;48.130;8.378;2022-12-18T00:50:57;12.07;;;8.13;;
52248;SDS011;38541;48.130;8.378;2022-12-18T00:53:24;10.18;;;7.78;;
52248;SDS011;38541;48.130;8.378;2022-12-18T00:55:50;11.98;;;8.88;;
52248;SDS011;38541;48.130;8.378;2022-12-18T00:58:17;15.23;;;8.77;;
52248;SDS011;38541;48.130;8.378;2022-12-18T01:00:43;11.13;;;8.70;;
52248;SDS011;38541;48.130;8.378;2022-12-18T01:03:12;11.98;;;9.10;;
52248;SDS011;38541;48.130;8.378;2022-12-18T01:05:42;12.15;;;10.07;;
52248;SDS011;38541;48.130;8.378;2022-12-18T01:08:10;10.93;;;8.32;;
52248;SDS011;38541;48.130;8.378;2022-12-18T01:10:39;14.43;;;9.68;;
52248;SDS011;38541;48.130;8.378;2022-12-18T01:13:07;13.05;;;9.18;;
52248;SDS011;38541;48.130;8.378;2022-12-18T01:15:33;13.60;;;9.57;;
52248;SDS011;38541;48.130;8.378;2022-12-18T01:18:00;12.57;;;9.05;;
52248;SDS011;38541;48.130;8.378;2022-12-18T01:20:26;12.10;;;8.68;;
52248;SDS011;38541;48.130;8.378;2022-12-18T01:22:52;13.73;;;9.63;;
52248;SDS011;38541;48.130;8.378;2022-12-18T01:25:19;12.63;;;9.57;;
52248;SDS011;38541;48.130;8.378;2022-12-18T01:27:45;12.43;;;9.98;;
52248;SDS011;38541;48.130;8.378;2022-12-18T01:30:12;11.45;;;8.60;;
52248;SDS011;38541;48.130;8.378;2022-12-18T01:32:38;16.23;;;11.05;;
52248;SDS011;38541;48.130;8.378;2022-12-18T01:35:05;13.07;;;9.13;;
52248;SDS011;38541;48.130;8.378;2022-12-18T01:37:33;13.82;;;9.75;;
52248;SDS011;38541;48.130;8.378;2022-12-18T01:39:59;16.92;;;10.68;;
52248;SDS011;38541;48.130;8.378;2022-12-18T01:42:26;14.10;;;9.73;;
52248;SDS011;38541;48.130;8.378;2022-12-18T01:53:02;13.25;;;9.75;;
52248;SDS011;38541;48.130;8.378;2022-12-18T01:55:35;15.23;;;9.80;;
52248;SDS011;38541;48.130;8.378;2022-12-18T01:58:23;14.85;;;10.15;;
52248;SDS011;38541;48.130;8.378;2022-12-18T02:01:11;12.68;;;8.77;;
52248;SDS011;38541;48.130;8.378;2022-12-18T02:03:40;12.85;;;10.27;;
52248;SDS011;38541;48.130;8.378;2022-12-18T02:17:20;13.55;;;9.35;;
52248;SDS011;38541;48.130;8.378;2022-12-18T02:20:12;15.02;;;10.35;;
52248;SDS011;38541;48.130;8.378;2022-12-18T02:25:51;17.10;;;10.27;;
52248;SDS011;38541;48.130;8.378;2022-12-18T02:28:30;17.05;;;10.65;;
52248;SDS011;38541;48.130;8.378;2022-12-18T02:31:03;14.50;;;10.20;;
52248;SDS011;38541;48.130;8.378;2022-12-18T02:33:33;17.80;;;10.02;;
52248;SDS011;38541;48.130;8.378;2022-12-18T02:36:02;14.85;;;10.07;;
52248;SDS011;38541;48.130;8.378;2022-12-18T02:38:31;15.05;;;10.27;;
52248;SDS011;38541;48.130;8.378;2022-12-18T02:43:35;15.82;;;10.45;;
52248;SDS011;38541;48.130;8.378;2022-12-18T02:46:20;16.27;;;10.32;;
52248;SDS011;38541;48.130;8.378;2022-12-18T02:48:57;19.75;;;11.20;;
52248;SDS011;38541;48.130;8.378;2022-12-18T02:51:34;17.45;;;10.70;;
52248;SDS011;38541;48.130;8.378;2022-12-18T02:54:16;15.20;;;9.57;;
52248;SDS011;38541;48.130;8.378;2022-12-18T02:56:58;13.48;;;9.65;;
52248;SDS011;38541;48.130;8.378;2022-12-18T02:59:41;19.20;;;11.75;;
52248;SDS011;38541;48.130;8.378;2022-12-18T03:04:55;19.88;;;11.60;;
52248;SDS011;38541;48.130;8.378;2022-12-18T03:07:36;16.73;;;10.68;;
52248;SDS011;38541;48.130;8.378;2022-12-18T03:10:09;16.05;;;11.98;;
52248;SDS011;38541;48.130;8.378;2022-12-18T03:12:42;14.73;;;10.73;;
52248;SDS011;38541;48.130;8.378;2022-12-18T03:15:52;18.27;;;11.13;;
52248;SDS011;38541;48.130;8.378;2022-12-18T03:18:20;16.17;;;10.30;;
52248;SDS011;38541;48.130;8.378;2022-12-18T03:20:51;17.77;;;10.20;;
52248;SDS011;38541;48.130;8.378;2022-12-18T03:23:23;16.17;;;10.35;;
52248;SDS011;38541;48.130;8.378;2022-12-18T03:25:53;16.02;;;10.10;;
52248;SDS011;38541;48.130;8.378;2022-12-18T03:28:36;17.75;;;11.45;;
52248;SDS011;38541;48.130;8.378;2022-12-18T03:31:09;17.92;;;10.65;;
52248;SDS011;38541;48.130;8.378;2022-12-18T03:36:22;17.20;;;11.00;;
52248;SDS011;38541;48.130;8.378;2022-12-18T03:38:50;17.17;;;10.45;;
52248;SDS011;38541;48.130;8.378;2022-12-18T03:41:19;18.85;;;11.43;;
52248;SDS011;38541;48.130;8.378;2022-12-18T03:49:57;17.10;;;10.93;;
52248;SDS011;38541;48.130;8.378;2022-12-18T03:52:41;15.20;;;11.07;;
52248;SDS011;38541;48.130;8.378;2022-12-18T03:55:14;13.38;;;9.82;;
52248;SDS011;38541;48.130;8.378;2022-12-18T03:57:45;13.85;;;10.05;;
52248;SDS011;38541;48.130;8.378;2022-12-18T04:00:15;20.30;;;11.55;;
52248;SDS011;38541;48.130;8.378;2022-12-18T04:02:54;18.48;;;11.35;;
52248;SDS011;38541;48.130;8.378;2022-12-18T04:05:31;17.05;;;11.45;;
52248;SDS011;38541;48.130;8.378;2022-12-18T04:08:01;18.55;;;11.48;;
52248;SDS011;38541;48.130;8.378;2022-12-18T04:10:29;20.45;;;12.18;;
52248;SDS011;38541;48.130;8.378;2022-12-18T04:12:57;20.00;;;12.27;;
52248;SDS011;38541;48.130;8.378;2022-12-18T04:15:25;18.52;;;12.23;;
52248;SDS011;38541;48.130;8.378;2022-12-18T04:17:51;19.20;;;11.90;;
52248;SDS011;38541;48.130;8.378;2022-12-18T04:20:21;17.88;;;12.35;;
52248;SDS011;38541;48.130;8.378;2022-12-18T04:22:48;19.77;;;11.75;;
52248;SDS011;38541;48.130;8.378;2022-12-18T04:25:17;17.67;;;12.45;;
52248;SDS011;38541;48.130;8.378;2022-12-18T04:30:32;17.80;;;11.82;;
52248;SDS011;38541;48.130;8.378;2022-12-18T04:32:59;19.58;;;11.27;;
52248;SDS011;38541;48.130;8.378;2022-12-18T04:35:26;19.98;;;12.02;;
52248;SDS011;38541;48.130;8.378;2022-12-18T04:37:53;17.80;;;10.50;;
52248;SDS011;38541;48.130;8.378;2022-12-18T04:40:20;19.90;;;12.77;;
52248;SDS011;38541;48.130;8.378;2022-12-18T04:42:47;18.27;;;12.82;;
52248;SDS011;38541;48.130;8.378;2022-12-18T04:45:14;20.42;;;13.32;;
52248;SDS011;38541;48.130;8.378;2022-12-18T04:47:40;18.52;;;12.20;;
52248;SDS011;38541;48.130;8.378;2022-12-18T04:50:07;22.20;;;13.18;;
52248;SDS011;38541;48.130;8.378;2022-12-18T04:52:33;21.20;;;12.98;;
52248;SDS011;38541;48.130;8.378;2022-12-18T04:55:00;18.75;;;12.82;;
52248;SDS011;38541;48.130;8.378;2022-12-18T04:57:26;22.10;;;12.93;;
52248;SDS011;38541;48.130;8.378;2022-12-18T04:59:53;19.80;;;13.13;;
52248;SDS011;38541;48.130;8.378;2022-12-18T05:02:19;19.55;;;11.00;;
52248;SDS011;38541;48.130;8.378;2022-12-18T05:04:46;21.63;;;13.07;;
52248;SDS011;38541;48.130;8.378;2022-12-18T05:07:12;25.70;;;13.55;;
52248;SDS011;38541;48.130;8.378;2022-12-18T05:09:39;17.20;;;12.18;;
52248;SDS011;38541;48.130;8.378;2022-12-18T05:12:06;21.08;;;13.82;;
52248;SDS011;38541;48.130;8.378;2022-12-18T05:14:33;24.58;;;12.55;;
52248;SDS011;38541;48.130;8.378;2022-12-18T05:16:59;21.92;;;13.02;;
52248;SDS011;38541;48.130;8.378;2022-12-18T05:19:26;18.52;;;12.05;;
52248;SDS011;38541;48.130;8.378;2022-12-18T05:21:53;19.98;;;13.60;;
52248;SDS011;38541;48.130;8.378;2022-12-18T05:24:19;20.40;;;13.10;;
52248;SDS011;38541;48.130;8.378;2022-12-18T05:26:46;24.90;;;14.05;;
52248;SDS011;38541;48.130;8.378;2022-12-18T05:29:12;21.15;;;13.75;;
52248;SDS011;38541;48.130;8.378;2022-12-18T05:31:39;21.67;;;13.35;;
52248;SDS011;38541;48.130;8.378;2022-12-18T05:34:07;19.20;;;11.95;;
52248;SDS011;38541;48.130;8.378;2022-12-18T05:36:35;21.73;;;12.95;;
52248;SDS011;38541;48.130;8.378;2022-12-18T05:39:02;24.55;;;14.70;;
52248;SDS011;38541;48.130;8.378;2022-12-18T05:41:29;24.98;;;15.55;;
52248;SDS011;38541;48.130;8.378;2022-12-18T05:43:56;23.02;;;14.18;;
52248;SDS011;38541;48.130;8.378;2022-12-18T05:46:22;21.48;;;13.07;;
52248;SDS011;38541;48.130;8.378;2022-12-18T05:48:50;22.15;;;14.13;;
52248;SDS011;38541;48.130;8.378;2022-12-18T05:51:18;23.90;;;14.27;;
52248;SDS011;38541;48.130;8.378;2022-12-18T05:53:46;20.77;;;12.45;;
52248;SDS011;38541;48.130;8.378;2022-12-18T05:56:14;20.10;;;13.10;;
52248;SDS011;38541;48.130;8.378;2022-12-18T05:58:42;24.77;;;14.85;;
52248;SDS011;38541;48.130;8.378;2022-12-18T06:01:16;22.85;;;14.00;;
52248;SDS011;38541;48.130;8.378;2022-12-18T06:03:44;20.87;;;13.17;;
52248;SDS011;38541;48.130;8.378;2022-12-18T06:06:16;20.38;;;14.43;;
52248;SDS011;38541;48.130;8.378;2022-12-18T06:08:45;22.85;;;14.77;;
52248;SDS011;38541;48.130;8.378;2022-12-18T06:11:12;22.50;;;13.23;;
52248;SDS011;38541;48.130;8.378;2022-12-18T06:13:41;25.63;;;15.52;;
52248;SDS011;38541;48.130;8.378;2022-12-18T06:16:08;28.73;;;15.35;;
52248;SDS011;38541;48.130;8.378;2022-12-18T06:18:37;23.40;;;13.77;;
52248;SDS011;38541;48.130;8.378;2022-12-18T06:21:04;21.63;;;13.25;;
52248;SDS011;38541;48.130;8.378;2022-12-18T06:23:31;25.25;;;14.63;;
52248;SDS011;38541;48.130;8.378;2022-12-18T06:25:57;21.65;;;13.45;;
52248;SDS011;38541;48.130;8.378;2022-12-18T06:28:24;19.50;;;12.98;;
52248;SDS011;38541;48.130;8.378;2022-12-18T06:30:50;24.73;;;14.90;;
52248;SDS011;38541;48.130;8.378;2022-12-18T06:33:17;22.08;;;13.30;;
52248;SDS011;38541;48.130;8.378;2022-12-18T06:35:43;22.83;;;13.63;;
52248;SDS011;38541;48.130;8.378;2022-12-18T06:38:10;23.48;;;14.40;;
52248;SDS011;38541;48.130;8.378;2022-12-18T06:40:37;21.77;;;14.15;;
52248;SDS011;38541;48.130;8.378;2022-12-18T06:43:05;23.85;;;14.25;;
52248;SDS011;38541;48.130;8.378;2022-12-18T06:45:32;21.58;;;13.70;;
52248;SDS011;38541;48.130;8.378;2022-12-18T06:47:59;23.35;;;14.73;;
52248;SDS011;38541;48.130;8.378;2022-12-18T06:50:25;26.75;;;15.77;;
52248;SDS011;38541;48.130;8.378;2022-12-18T06:52:52;26.17;;;15.35;;
52248;SDS011;38541;48.130;8.378;2022-12-18T06:55:18;22.55;;;14.65;;
52248;SDS011;38541;48.130;8.378;2022-12-18T06:57:45;20.92;;;13.60;;
52248;SDS011;38541;48.130;8.378;2022-12-18T07:00:11;22.92;;;14.02;;
52248;SDS011;38541;48.130;8.378;2022-12-18T07:02:38;24.70;;;15.30;;
52248;SDS011;38541;48.130;8.378;2022-12-18T07:05:05;25.30;;;16.17;;
52248;SDS011;38541;48.130;8.378;2022-12-18T07:07:36;21.38;;;14.57;;
52248;SDS011;38541;48.130;8.378;2022-12-18T07:10:03;24.58;;;16.48;;
52248;SDS011;38541;48.130;8.378;2022-12-18T07:12:30;24.52;;;14.85;;
52248;SDS011;38541;48.130;8.378;2022-12-18T07:14:56;24.65;;;14.73;;
52248;SDS011;38541;48.130;8.378;2022-12-18T07:17:23;21.45;;;15.40;;
52248;SDS011;38541;48.130;8.378;2022-12-18T07:19:49;22.95;;;14.20;;
52248;SDS011;38541;48.130;8.378;2022-12-18T07:22:16;19.88;;;12.82;;
52248;SDS011;38541;48.130;8.378;2022-12-18T07:24:42;22.80;;;15.27;;
52248;SDS011;38541;48.130;8.378;2022-12-18T07:27:09;25.30;;;14.55;;
52248;SDS011;38541;48.130;8.378;2022-12-18T07:29:35;24.10;;;14.57;;
52248;SDS011;38541;48.130;8.378;2022-12-18T07:32:03;21.27;;;13.98;;
52248;SDS011;38541;48.130;8.378;2022-12-18T07:34:29;22.88;;;14.05;;
52248;SDS011;38541;48.130;8.378;2022-12-18T07:36:56;24.83;;;14.73;;
52248;SDS011;38541;48.130;8.378;2022-12-18T07:39:22;23.45;;;14.05;;
52248;SDS011;38541;48.130;8.378;2022-12-18T07:41:49;24.13;;;14.70;;
52248;SDS011;38541;48.130;8.378;2022-12-18T07:44:38;22.65;;;14.30;;
52248;SDS011;38541;48.130;8.378;2022-12-18T07:47:05;24.52;;;14.98;;
52248;SDS011;38541;48.130;8.378;2022-12-18T07:49:37;25.75;;;14.35;;
52248;SDS011;38541;48.130;8.378;2022-12-18T07:52:03;23.15;;;14.73;;
52248;SDS011;38541;48.130;8.378;2022-12-18T07:54:30;23.60;;;14.38;;
52248;SDS011;38541;48.130;8.378;2022-12-18T07:56:56;25.63;;;14.90;;
52248;SDS011;38541;48.130;8.378;2022-12-18T07:59:23;24.63;;;15.23;;
52248;SDS011;38541;48.130;8.378;2022-12-18T08:01:50;24.67;;;14.95;;
52248;SDS011;38541;48.130;8.378;2022-12-18T08:04:17;23.67;;;14.30;;
52248;SDS011;38541;48.130;8.378;2022-12-18T08:06:43;23.27;;;14.52;;
52248;SDS011;38541;48.130;8.378;2022-12-18T08:09:13;25.42;;;15.02;;
52248;SDS011;38541;48.130;8.378;2022-12-18T08:11:40;22.13;;;13.90;;
52248;SDS011;38541;48.130;8.378;2022-12-18T08:14:06;23.15;;;14.88;;
52248;SDS011;38541;48.130;8.378;2022-12-18T08:16:33;23.80;;;14.25;;
52248;SDS011;38541;48.130;8.378;2022-12-18T08:18:59;23.55;;;15.57;;
52248;SDS011;38541;48.130;8.378;2022-12-18T08:21:27;20.60;;;13.40;;
52248;SDS011;38541;48.130;8.378;2022-12-18T08:23:56;21.50;;;13.88;;
52248;SDS011;38541;48.130;8.378;2022-12-18T08:26:25;23.73;;;14.88;;
52248;SDS011;38541;48.130;8.378;2022-12-18T08:28:54;21.23;;;13.68;;
52248;SDS011;38541;48.130;8.378;2022-12-18T08:31:22;24.13;;;14.85;;
52248;SDS011;38541;48.130;8.378;2022-12-18T08:33:50;23.55;;;13.73;;
52248;SDS011;38541;48.130;8.378;2022-12-18T08:36:19;23.27;;;13.40;;
52248;SDS011;38541;48.130;8.378;2022-12-18T08:38:46;25.42;;;15.38;;
52248;SDS011;38541;48.130;8.378;2022-12-18T08:41:14;22.02;;;13.77;;
52248;SDS011;38541;48.130;8.378;2022-12-18T08:43:42;22.90;;;13.80;;
52248;SDS011;38541;48.130;8.378;2022-12-18T08:46:27;25.10;;;14.90;;
52248;SDS011;38541;48.130;8.378;2022-12-18T08:48:59;22.42;;;13.90;;
52248;SDS011;38541;48.130;8.378;2022-12-18T08:51:26;21.33;;;13.73;;
52248;SDS011;38541;48.130;8.378;2022-12-18T08:53:52;21.23;;;14.10;;
52248;SDS011;38541;48.130;8.378;2022-12-18T08:56:19;20.55;;;13.15;;
52248;SDS011;38541;48.130;8.378;2022-12-18T08:58:45;23.00;;;15.48;;
52248;SDS011;38541;48.130;8.378;2022-12-18T09:01:12;22.27;;;13.52;;
52248;SDS011;38541;48.130;8.378;2022-12-18T09:03:39;19.75;;;14.07;;
52248;SDS011;38541;48.130;8.378;2022-12-18T09:06:07;23.48;;;14.95;;
52248;SDS011;38541;48.130;8.378;2022-12-18T09:08:33;21.70;;;14.70;;
52248;SDS011;38541;48.130;8.378;2022-12-18T09:11:00;21.48;;;14.02;;
52248;SDS011;38541;48.130;8.378;2022-12-18T09:13:26;19.23;;;13.85;;
52248;SDS011;38541;48.130;8.378;2022-12-18T09:15:53;28.25;;;16.73;;
52248;SDS011;38541;48.130;8.378;2022-12-18T09:18:21;20.85;;;14.27;;
52248;SDS011;38541;48.130;8.378;2022-12-18T09:20:49;24.05;;;15.15;;
52248;SDS011;38541;48.130;8.378;2022-12-18T09:23:18;23.05;;;14.00;;
52248;SDS011;38541;48.130;8.378;2022-12-18T09:25:44;22.95;;;14.13;;
52248;SDS011;38541;48.130;8.378;2022-12-18T09:28:12;22.73;;;14.13;;
52248;SDS011;38541;48.130;8.378;2022-12-18T09:30:41;24.52;;;15.13;;
52248;SDS011;38541;48.130;8.378;2022-12-18T09:33:09;21.10;;;13.57;;
52248;SDS011;38541;48.130;8.378;2022-12-18T09:35:36;19.02;;;13.07;;
52248;SDS011;38541;48.130;8.378;2022-12-18T09:38:05;21.92;;;14.13;;
52248;SDS011;38541;48.130;8.378;2022-12-18T09:40:34;19.88;;;13.45;;
52248;SDS011;38541;48.130;8.378;2022-12-18T09:43:03;22.77;;;14.65;;
52248;SDS011;38541;48.130;8.378;2022-12-18T09:45:40;20.90;;;13.95;;
52248;SDS011;38541;48.130;8.378;2022-12-18T09:48:14;22.15;;;13.98;;
52248;SDS011;38541;48.130;8.378;2022-12-18T09:50:46;22.67;;;14.80;;
52248;SDS011;38541;48.130;8.378;2022-12-18T09:53:15;23.05;;;16.23;;
52248;SDS011;38541;48.130;8.378;2022-12-18T09:55:46;22.08;;;14.32;;
52248;SDS011;38541;48.130;8.378;2022-12-18T09:58:24;21.40;;;15.00;;
52248;SDS011;38541;48.130;8.378;2022-12-18T10:00:53;22.48;;;15.25;;
52248;SDS011;38541;48.130;8.378;2022-12-18T10:03:20;21.92;;;13.85;;
52248;SDS011;38541;48.130;8.378;2022-12-18T10:06:07;23.25;;;13.82;;
52248;SDS011;38541;48.130;8.378;2022-12-18T10:08:47;22.60;;;14.65;;
52248;SDS011;38541;48.130;8.378;2022-12-18T10:14:23;23.25;;;14.85;;
52248;SDS011;38541;48.130;8.378;2022-12-18T10:16:57;20.95;;;13.93;;
52248;SDS011;38541;48.130;8.378;2022-12-18T10:20:13;26.02;;;15.52;;
52248;SDS011;38541;48.130;8.378;2022-12-18T10:22:26;23.65;;;16.38;;
52248;SDS011;38541;48.130;8.378;2022-12-18T10:27:46;24.27;;;15.57;;
52248;SDS011;38541;48.130;8.378;2022-12-18T10:30:14;25.38;;;16.25;;
52248;SDS011;38541;48.130;8.378;2022-12-18T10:32:47;22.30;;;15.88;;
52248;SDS011;38541;48.130;8.378;2022-12-18T10:35:23;23.02;;;15.73;;
52248;SDS011;38541;48.130;8.378;2022-12-18T10:43:28;23.58;;;15.55;;
52248;SDS011;38541;48.130;8.378;2022-12-18T10:51:47;23.13;;;15.63;;
52248;SDS011;38541;48.130;8.378;2022-12-18T10:54:07;22.27;;;15.23;;
52248;SDS011;38541;48.130;8.378;2022-12-18T10:56:41;26.48;;;15.43;;
52248;SDS011;38541;48.130;8.378;2022-12-18T10:59:10;21.15;;;13.00;;
52248;SDS011;38541;48.130;8.378;2022-12-18T11:01:45;25.38;;;15.48;;
52248;SDS011;38541;48.130;8.378;2022-12-18T11:04:26;23.83;;;15.10;;
52248;SDS011;38541;48.130;8.378;2022-12-18T11:09:26;24.88;;;15.68;;
52248;SDS011;38541;48.130;8.378;2022-12-18T11:11:59;27.02;;;15.95;;
52248;SDS011;38541;48.130;8.378;2022-12-18T11:14:29;28.30;;;15.82;;
52248;SDS011;38541;48.130;8.378;2022-12-18T11:16:58;23.85;;;15.10;;
52248;SDS011;38541;48.130;8.378;2022-12-18T11:19:51;26.45;;;14.57;;
52248;SDS011;38541;48.130;8.378;2022-12-18T11:22:23;26.20;;;15.82;;
52248;SDS011;38541;48.130;8.378;2022-12-18T11:24:59;25.60;;;16.17;;
52248;SDS011;38541;48.130;8.378;2022-12-18T11:27:58;23.80;;;14.73;;
52248;SDS011;38541;48.130;8.378;2022-12-18T11:32:58;25.40;;;14.65;;
52248;SDS011;38541;48.130;8.378;2022-12-18T11:38:13;24.15;;;14.45;;
52248;SDS011;38541;48.130;8.378;2022-12-18T11:40:47;25.30;;;15.18;;
52248;SDS011;38541;48.130;8.378;2022-12-18T11:43:23;24.52;;;14.43;;
52248;SDS011;38541;48.130;8.378;2022-12-18T11:45:56;24.83;;;14.68;;
52248;SDS011;38541;48.130;8.378;2022-12-18T11:48:38;25.50;;;15.73;;
52248;SDS011;38541;48.130;8.378;2022-12-18T11:51:14;25.95;;;15.85;;
52248;SDS011;38541;48.130;8.378;2022-12-18T11:53:52;24.17;;;16.52;;
52248;SDS011;38541;48.130;8.378;2022-12-18T11:56:39;24.88;;;15.68;;
52248;SDS011;38541;48.130;8.378;2022-12-18T11:59:24;24.83;;;14.77;;
52248;SDS011;38541;48.130;8.378;2022-12-18T12:05:02;27.15;;;15.52;;
52248;SDS011;38541;48.130;8.378;2022-12-18T12:07:46;23.25;;;15.45;;
52248;SDS011;38541;48.130;8.378;2022-12-18T12:11:05;20.92;;;14.45;;
52248;SDS011;38541;48.130;8.378;2022-12-18T12:13:37;27.77;;;15.02;;
52248;SDS011;38541;48.130;8.378;2022-12-18T12:26:45;24.13;;;15.52;;
52248;SDS011;38541;48.130;8.378;2022-12-18T12:32:35;22.98;;;15.02;;
52248;SDS011;38541;48.130;8.378;2022-12-18T12:40:31;27.80;;;15.27;;
52248;SDS011;38541;48.130;8.378;2022-12-18T12:43:35;24.17;;;16.15;;
52248;SDS011;38541;48.130;8.378;2022-12-18T12:46:17;23.02;;;15.27;;
52248;SDS011;38541;48.130;8.378;2022-12-18T12:51:31;24.38;;;15.27;;
52248;SDS011;38541;48.130;8.378;2022-12-18T12:54:01;22.42;;;14.88;;
52248;SDS011;38541;48.130;8.378;2022-12-18T13:10:49;24.13;;;14.98;;
52248;SDS011;38541;48.130;8.378;2022-12-18T13:13:55;25.98;;;15.65;;
52248;SDS011;38541;48.130;8.378;2022-12-18T13:16:23;21.95;;;13.20;;
52248;SDS011;38541;48.130;8.378;2022-12-18T13:18:52;28.73;;;16.02;;
52248;SDS011;38541;48.130;8.378;2022-12-18T13:21:21;25.73;;;15.00;;
52248;SDS011;38541;48.130;8.378;2022-12-18T13:23:53;29.45;;;15.18;;
52248;SDS011;38541;48.130;8.378;2022-12-18T13:28:54;25.88;;;14.25;;
52248;SDS011;38541;48.130;8.378;2022-12-18T13:48:22;23.33;;;14.40;;
52248;SDS011;38541;48.130;8.378;2022-12-18T13:50:57;25.42;;;15.05;;
52248;SDS011;38541;48.130;8.378;2022-12-18T13:56:16;22.00;;;14.45;;
52248;SDS011;38541;48.130;8.378;2022-12-18T13:58:46;20.40;;;14.43;;
52248;SDS011;38541;48.130;8.378;2022-12-18T14:01:28;24.45;;;14.25;;
52248;SDS011;38541;48.130;8.378;2022-12-18T14:07:03;24.08;;;15.23;;
52248;SDS011;38541;48.130;8.378;2022-12-18T14:09:35;24.52;;;15.75;;
52248;SDS011;38541;48.130;8.378;2022-12-18T14:12:06;25.33;;;15.60;;
52248;SDS011;38541;48.130;8.378;2022-12-18T14:14:58;23.27;;;14.27;;
52248;SDS011;38541;48.130;8.378;2022-12-18T14:17:26;27.10;;;15.23;;
52248;SDS011;38541;48.130;8.378;2022-12-18T14:19:53;23.48;;;13.82;;
52248;SDS011;38541;48.130;8.378;2022-12-18T14:22:21;24.08;;;15.95;;
52248;SDS011;38541;48.130;8.378;2022-12-18T14:25:06;25.20;;;15.40;;
52248;SDS011;38541;48.130;8.378;2022-12-18T14:27:53;28.40;;;16.30;;
52248;SDS011;38541;48.130;8.378;2022-12-18T14:30:39;25.60;;;15.70;;
52248;SDS011;38541;48.130;8.378;2022-12-18T14:35:41;23.58;;;14.95;;
52248;SDS011;38541;48.130;8.378;2022-12-18T14:41:17;24.25;;;15.65;;
52248;SDS011;38541;48.130;8.378;2022-12-18T14:43:46;24.95;;;14.98;;
52248;SDS011;38541;48.130;8.378;2022-12-18T14:48:56;22.40;;;13.77;;
52248;SDS011;38541;48.130;8.378;2022-12-18T14:51:24;21.05;;;14.05;;
52248;SDS011;38541;48.130;8.378;2022-12-18T14:56:25;23.15;;;15.18;;
52248;SDS011;38541;48.130;8.378;2022-12-18T14:59:00;24.73;;;15.80;;
52248;SDS011;38541;48.130;8.378;2022-12-18T15:01:30;26.77;;;15.32;;
52248;SDS011;38541;48.130;8.378;2022-12-18T15:04:01;22.52;;;13.65;;
52248;SDS011;38541;48.130;8.378;2022-12-18T15:06:35;25.27;;;14.98;;
52248;SDS011;38541;48.130;8.378;2022-12-18T15:09:05;22.58;;;14.23;;
52248;SDS011;38541;48.130;8.378;2022-12-18T15:11:48;21.10;;;13.95;;
52248;SDS011;38541;48.130;8.378;2022-12-18T15:16:56;25.15;;;14.02;;
52248;SDS011;38541;48.130;8.378;2022-12-18T15:19:30;23.05;;;13.88;;
52248;SDS011;38541;48.130;8.378;2022-12-18T15:22:03;21.90;;;12.95;;
52248;SDS011;38541;48.130;8.378;2022-12-18T15:24:32;24.90;;;14.77;;
52248;SDS011;38541;48.130;8.378;2022-12-18T15:26:59;26.85;;;14.93;;
52248;SDS011;38541;48.130;8.378;2022-12-18T15:29:26;22.73;;;13.82;;
52248;SDS011;38541;48.130;8.378;2022-12-18T15:32:03;23.52;;;13.90;;
52248;SDS011;38541;48.130;8.378;2022-12-18T15:34:31;21.60;;;14.48;;
52248;SDS011;38541;48.130;8.378;2022-12-18T15:37:00;24.10;;;14.10;;
52248;SDS011;38541;48.130;8.378;2022-12-18T15:39:26;22.23;;;15.05;;
52248;SDS011;38541;48.130;8.378;2022-12-18T15:41:53;19.83;;;13.23;;
52248;SDS011;38541;48.130;8.378;2022-12-18T15:44:38;23.17;;;14.18;;
52248;SDS011;38541;48.130;8.378;2022-12-18T15:47:08;20.65;;;13.75;;
52248;SDS011;38541;48.130;8.378;2022-12-18T15:49:37;21.90;;;13.27;;
52248;SDS011;38541;48.130;8.378;2022-12-18T15:52:04;21.90;;;13.82;;
52248;SDS011;38541;48.130;8.378;2022-12-18T15:54:31;22.55;;;14.35;;
52248;SDS011;38541;48.130;8.378;2022-12-18T15:57:33;27.05;;;16.52;;
52248;SDS011;38541;48.130;8.378;2022-12-18T16:00:00;25.50;;;14.45;;
52248;SDS011;38541;48.130;8.378;2022-12-18T16:02:26;23.05;;;14.02;;
52248;SDS011;38541;48.130;8.378;2022-12-18T16:04:54;21.85;;;13.60;;
52248;SDS011;38541;48.130;8.378;2022-12-18T16:07:21;26.52;;;15.55;;
52248;SDS011;38541;48.130;8.378;2022-12-18T16:09:51;22.45;;;14.68;;
52248;SDS011;38541;48.130;8.378;2022-12-18T16:12:19;22.67;;;14.95;;
52248;SDS011;38541;48.130;8.378;2022-12-18T16:14:48;21.92;;;13.80;;
52248;SDS011;38541;48.130;8.378;2022-12-18T16:17:15;24.27;;;14.40;;
52248;SDS011;38541;48.130;8.378;2022-12-18T16:19:43;22.83;;;14.65;;
52248;SDS011;38541;48.130;8.378;2022-12-18T16:22:15;21.45;;;13.25;;
52248;SDS011;38541;48.130;8.378;2022-12-18T16:24:48;21.73;;;14.02;;
52248;SDS011;38541;48.130;8.378;2022-12-18T16:27:16;20.67;;;13.88;;
52248;SDS011;38541;48.130;8.378;2022-12-18T16:29:42;21.13;;;15.32;;
52248;SDS011;38541;48.130;8.378;2022-12-18T16:32:11;26.40;;;16.75;;
52248;SDS011;38541;48.130;8.378;2022-12-18T16:34:40;25.75;;;16.85;;
52248;SDS011;38541;48.130;8.378;2022-12-18T16:37:08;25.05;;;16.15;;
52248;SDS011;38541;48.130;8.378;2022-12-18T16:39:36;25.23;;;15.63;;
52248;SDS011;38541;48.130;8.378;2022-12-18T16:42:05;21.92;;;15.00;;
52248;SDS011;38541;48.130;8.378;2022-12-18T16:44:35;23.02;;;15.07;;
52248;SDS011;38541;48.130;8.378;2022-12-18T16:47:02;21.75;;;15.13;;
52248;SDS011;38541;48.130;8.378;2022-12-18T16:49:30;21.83;;;13.63;;
52248;SDS011;38541;48.130;8.378;2022-12-18T16:51:56;20.52;;;13.60;;
52248;SDS011;38541;48.130;8.378;2022-12-18T16:54:23;19.55;;;13.95;;
52248;SDS011;38541;48.130;8.378;2022-12-18T16:56:50;20.23;;;13.95;;
52248;SDS011;38541;48.130;8.378;2022-12-18T16:59:17;19.95;;;13.27;;
52248;SDS011;38541;48.130;8.378;2022-12-18T17:01:45;21.80;;;13.45;;
52248;SDS011;38541;48.130;8.378;2022-12-18T17:04:12;22.02;;;13.32;;
52248;SDS011;38541;48.130;8.378;2022-12-18T17:06:41;21.23;;;13.93;;